sensor_id;sensor_type;location;lat;lon;timestamp;pressure;altitude;pressure_sealevel;temperature;humidity
47897;BME280;39629;51.400;5.494;2023-05-11T00:03:48;101259.03;;;11.20;100.00
47897;BME280;39629;51.400;5.494;2023-05-11T00:08:49;101254.63;;;11.22;100.00
47897;BME280;39629;51.400;5.494;2023-05-11T00:13:51;101251.13;;;11.20;100.00
47897;BME280;39629;51.400;5.494;2023-05-11T00:18:54;101252.00;;;11.21;100.00
47897;BME280;39629;51.400;5.494;2023-05-11T00:23:55;101256.41;;;11.20;100.00
47897;BME280;39629;51.400;5.494;2023-05-11T00:28:57;101244.97;;;11.18;100.00
47897;BME280;39629;51.400;5.494;2023-05-11T00:34:00;101254.63;;;11.19;100.00
47897;BME280;39629;51.400;5.494;2023-05-11T00:39:01;101252.00;;;11.19;100.00
47897;BME280;39629;51.400;5.494;2023-05-11T00:44:03;101253.75;;;11.19;100.00
47897;BME280;39629;51.400;5.494;2023-05-11T00:49:06;101256.41;;;11.19;100.00
47897;BME280;39629;51.400;5.494;2023-05-11T00:54:09;101256.41;;;11.22;100.00
47897;BME280;39629;51.400;5.494;2023-05-11T00:59:14;101257.25;;;11.22;100.00
47897;BME280;39629;51.400;5.494;2023-05-11T01:04:17;101252.88;;;11.28;100.00
47897;BME280;39629;51.400;5.494;2023-05-11T01:09:29;101252.88;;;11.26;100.00
47897;BME280;39629;51.400;5.494;2023-05-11T01:14:36;101263.44;;;11.24;100.00
47897;BME280;39629;51.400;5.494;2023-05-11T01:19:45;101260.78;;;11.26;100.00
47897;BME280;39629;51.400;5.494;2023-05-11T01:25:04;101250.25;;;11.28;100.00
47897;BME280;39629;51.400;5.494;2023-05-11T01:30:25;101248.50;;;11.20;100.00
47897;BME280;39629;51.400;5.494;2023-05-11T01:35:30;101259.03;;;11.23;100.00
47897;BME280;39629;51.400;5.494;2023-05-11T01:40:34;101255.50;;;11.23;100.00
47897;BME280;39629;51.400;5.494;2023-05-11T01:45:42;101255.50;;;11.21;100.00
47897;BME280;39629;51.400;5.494;2023-05-11T01:50:46;101255.50;;;11.21;100.00
47897;BME280;39629;51.400;5.494;2023-05-11T01:55:50;101259.03;;;11.20;100.00
47897;BME280;39629;51.400;5.494;2023-05-11T02:00:54;101255.50;;;11.17;100.00
47897;BME280;39629;51.400;5.494;2023-05-11T02:05:56;101250.22;;;11.09;100.00
47897;BME280;39629;51.400;5.494;2023-05-11T02:11:00;101255.50;;;11.12;100.00
47897;BME280;39629;51.400;5.494;2023-05-11T02:16:05;101250.22;;;11.06;100.00
47897;BME280;39629;51.400;5.494;2023-05-11T02:21:08;101251.09;;;10.97;100.00
47897;BME280;39629;51.400;5.494;2023-05-11T02:26:12;101257.22;;;10.92;100.00
47897;BME280;39629;51.400;5.494;2023-05-11T02:31:18;101257.16;;;10.82;100.00
47897;BME280;39629;51.400;5.494;2023-05-11T02:36:22;101249.25;;;10.74;100.00
47897;BME280;39629;51.400;5.494;2023-05-11T02:41:27;101260.59;;;10.66;100.00
47897;BME280;39629;51.400;5.494;2023-05-11T02:46:34;101251.84;;;10.61;100.00
47897;BME280;39629;51.400;5.494;2023-05-11T02:51:40;101252.72;;;10.63;100.00
47897;BME280;39629;51.400;5.494;2023-05-11T02:56:44;101256.19;;;10.62;100.00
47897;BME280;39629;51.400;5.494;2023-05-11T03:01:47;101250.97;;;10.65;100.00
47897;BME280;39629;51.400;5.494;2023-05-11T03:06:50;101262.38;;;10.65;100.00
47897;BME280;39629;51.400;5.494;2023-05-11T03:11:51;101253.56;;;10.62;100.00
47897;BME280;39629;51.400;5.494;2023-05-11T03:16:55;101254.47;;;10.62;100.00
47897;BME280;39629;51.400;5.494;2023-05-11T03:21:59;101257.09;;;10.68;100.00
47897;BME280;39629;51.400;5.494;2023-05-11T03:27:01;101257.09;;;10.70;100.00
47897;BME280;39629;51.400;5.494;2023-05-11T03:32:06;101263.28;;;10.70;100.00
47897;BME280;39629;51.400;5.494;2023-05-11T03:37:12;101264.13;;;10.71;100.00
47897;BME280;39629;51.400;5.494;2023-05-11T03:42:16;101262.38;;;10.73;100.00
47897;BME280;39629;51.400;5.494;2023-05-11T03:47:21;101258.88;;;10.71;100.00
47897;BME280;39629;51.400;5.494;2023-05-11T03:52:23;101259.75;;;10.68;100.00
47897;BME280;39629;51.400;5.494;2023-05-11T03:57:25;101255.38;;;10.72;100.00
47897;BME280;39629;51.400;5.494;2023-05-11T04:02:28;101250.97;;;10.68;100.00
47897;BME280;39629;51.400;5.494;2023-05-11T04:07:30;101261.50;;;10.65;100.00
47897;BME280;39629;51.400;5.494;2023-05-11T04:12:32;101251.84;;;10.64;100.00
47897;BME280;39629;51.400;5.494;2023-05-11T04:17:35;101262.38;;;10.62;100.00
47897;BME280;39629;51.400;5.494;2023-05-11T04:22:36;101260.59;;;10.66;100.00
47897;BME280;39629;51.400;5.494;2023-05-11T04:27:38;101272.03;;;10.66;100.00
47897;BME280;39629;51.400;5.494;2023-05-11T04:32:41;101269.41;;;10.65;100.00
47897;BME280;39629;51.400;5.494;2023-05-11T04:37:43;101268.50;;;10.63;100.00
47897;BME280;39629;51.400;5.494;2023-05-11T04:42:45;101261.50;;;10.69;100.00
47897;BME280;39629;51.400;5.494;2023-05-11T04:47:52;101275.56;;;10.79;100.00
47897;BME280;39629;51.400;5.494;2023-05-11T04:52:53;101278.28;;;10.90;100.00
47897;BME280;39629;51.400;5.494;2023-05-11T04:57:55;101281.81;;;11.04;100.00
47897;BME280;39629;51.400;5.494;2023-05-11T05:02:58;101291.47;;;11.08;100.00
47897;BME280;39629;51.400;5.494;2023-05-11T05:08:00;101288.00;;;11.22;100.00
47897;BME280;39629;51.400;5.494;2023-05-11T05:13:01;101297.66;;;11.15;100.00
47897;BME280;39629;51.400;5.494;2023-05-11T05:18:05;101297.66;;;11.34;100.00
47897;BME280;39629;51.400;5.494;2023-05-11T05:23:07;101308.22;;;11.48;100.00
47897;BME280;39629;51.400;5.494;2023-05-11T05:28:09;101303.88;;;11.74;100.00
47897;BME280;39629;51.400;5.494;2023-05-11T05:33:12;101302.06;;;12.03;100.00
47897;BME280;39629;51.400;5.494;2023-05-11T05:38:13;101301.19;;;12.07;100.00
47897;BME280;39629;51.400;5.494;2023-05-11T05:43:15;101313.50;;;12.00;100.00
47897;BME280;39629;51.400;5.494;2023-05-11T05:48:18;101313.50;;;12.00;100.00
47897;BME280;39629;51.400;5.494;2023-05-11T05:53:20;101313.50;;;12.11;100.00
47897;BME280;39629;51.400;5.494;2023-05-11T05:58:22;101325.81;;;12.03;100.00
47897;BME280;39629;51.400;5.494;2023-05-11T06:03:26;101317.84;;;12.34;100.00
47897;BME280;39629;51.400;5.494;2023-05-11T06:08:27;101323.97;;;12.60;100.00
47897;BME280;39629;51.400;5.494;2023-05-11T06:13:29;101326.66;;;12.47;100.00
47897;BME280;39629;51.400;5.494;2023-05-11T06:18:34;101328.38;;;12.35;100.00
47897;BME280;39629;51.400;5.494;2023-05-11T06:23:39;101331.84;;;12.67;100.00
47897;BME280;39629;51.400;5.494;2023-05-11T06:28:41;101328.38;;;12.43;100.00
47897;BME280;39629;51.400;5.494;2023-05-11T06:33:49;101338.03;;;12.53;100.00
47897;BME280;39629;51.400;5.494;2023-05-11T06:38:57;101335.44;;;12.44;100.00
47897;BME280;39629;51.400;5.494;2023-05-11T06:44:00;101342.50;;;12.47;100.00
47897;BME280;39629;51.400;5.494;2023-05-11T06:49:11;101351.28;;;12.33;100.00
47897;BME280;39629;51.400;5.494;2023-05-11T06:54:12;101346.88;;;12.41;100.00
47897;BME280;39629;51.400;5.494;2023-05-11T06:59:14;101356.56;;;12.46;100.00
47897;BME280;39629;51.400;5.494;2023-05-11T07:04:17;101349.53;;;12.44;100.00
47897;BME280;39629;51.400;5.494;2023-05-11T07:09:18;101355.63;;;12.57;100.00
47897;BME280;39629;51.400;5.494;2023-05-11T07:14:20;101349.50;;;12.52;100.00
47897;BME280;39629;51.400;5.494;2023-05-11T07:19:23;101353.88;;;12.41;100.00
47897;BME280;39629;51.400;5.494;2023-05-11T07:24:25;101357.44;;;12.37;100.00
47897;BME280;39629;51.400;5.494;2023-05-11T07:29:26;101362.72;;;12.46;100.00
47897;BME280;39629;51.400;5.494;2023-05-11T07:34:29;101364.47;;;12.58;100.00
47897;BME280;39629;51.400;5.494;2023-05-11T07:39:31;101367.94;;;12.60;100.00
47897;BME280;39629;51.400;5.494;2023-05-11T07:44:32;101363.56;;;12.56;100.00
47897;BME280;39629;51.400;5.494;2023-05-11T07:49:35;101364.34;;;12.87;100.00
47897;BME280;39629;51.400;5.494;2023-05-11T07:54:37;101371.47;;;12.62;100.00
47897;BME280;39629;51.400;5.494;2023-05-11T07:59:39;101375.00;;;12.61;100.00
47897;BME280;39629;51.400;5.494;2023-05-11T08:04:42;101376.72;;;12.73;100.00
47897;BME280;39629;51.400;5.494;2023-05-11T08:09:44;101374.94;;;12.76;100.00
47897;BME280;39629;51.400;5.494;2023-05-11T08:14:45;101375.81;;;12.75;100.00
47897;BME280;39629;51.400;5.494;2023-05-11T08:19:48;101369.69;;;12.75;100.00
47897;BME280;39629;51.400;5.494;2023-05-11T08:24:51;101376.75;;;12.67;100.00
47897;BME280;39629;51.400;5.494;2023-05-11T08:29:53;101383.78;;;12.68;100.00
47897;BME280;39629;51.400;5.494;2023-05-11T08:34:57;101387.19;;;13.04;100.00
47897;BME280;39629;51.400;5.494;2023-05-11T08:39:58;101380.13;;;13.06;100.00
47897;BME280;39629;51.400;5.494;2023-05-11T08:45:00;101380.22;;;12.84;100.00
47897;BME280;39629;51.400;5.494;2023-05-11T08:50:05;101377.56;;;12.89;100.00
47897;BME280;39629;51.400;5.494;2023-05-11T08:55:07;101385.50;;;12.83;100.00
47897;BME280;39629;51.400;5.494;2023-05-11T09:00:10;101387.19;;;13.01;100.00
47897;BME280;39629;51.400;5.494;2023-05-11T09:05:13;101393.31;;;13.10;100.00
47897;BME280;39629;51.400;5.494;2023-05-11T09:10:15;101387.81;;;13.49;100.00
47897;BME280;39629;51.400;5.494;2023-05-11T09:15:17;101394.78;;;13.62;100.00
47897;BME280;39629;51.400;5.494;2023-05-11T09:20:26;101385.03;;;13.71;100.00
47897;BME280;39629;51.400;5.494;2023-05-11T09:25:31;101399.16;;;13.67;100.00
47897;BME280;39629;51.400;5.494;2023-05-11T09:30:34;101393.13;;;13.51;100.00
47897;BME280;39629;51.400;5.494;2023-05-11T09:35:37;101400.06;;;13.62;100.00
47897;BME280;39629;51.400;5.494;2023-05-11T09:40:39;101392.13;;;13.69;100.00
47897;BME280;39629;51.400;5.494;2023-05-11T09:45:43;101398.84;;;14.16;100.00
47897;BME280;39629;51.400;5.494;2023-05-11T09:50:46;101402.53;;;13.93;100.00
47897;BME280;39629;51.400;5.494;2023-05-11T09:55:50;101389.91;;;14.26;100.00
47897;BME280;39629;51.400;5.494;2023-05-11T10:00:53;101391.41;;;14.55;100.00
47897;BME280;39629;51.400;5.494;2023-05-11T10:05:57;101387.78;;;14.61;100.00
47897;BME280;39629;51.400;5.494;2023-05-11T10:11:00;101391.56;;;14.37;100.00
47897;BME280;39629;51.400;5.494;2023-05-11T10:16:02;101402.03;;;14.52;100.00
47897;BME280;39629;51.400;5.494;2023-05-11T10:21:06;101400.38;;;14.40;100.00
47897;BME280;39629;51.400;5.494;2023-05-11T10:26:09;101389.75;;;14.42;100.00
47897;BME280;39629;51.400;5.494;2023-05-11T10:31:11;101408.63;;;14.06;100.00
47897;BME280;39629;51.400;5.494;2023-05-11T10:36:17;101392.34;;;14.50;100.00
47897;BME280;39629;51.400;5.494;2023-05-11T10:41:30;101390.19;;;16.09;100.00
47897;BME280;39629;51.400;5.494;2023-05-11T10:46:44;101383.88;;;16.17;100.00
47897;BME280;39629;51.400;5.494;2023-05-11T10:52:03;101387.44;;;15.59;100.00
47897;BME280;39629;51.400;5.494;2023-05-11T10:57:14;101386.81;;;15.43;100.00
47897;BME280;39629;51.400;5.494;2023-05-11T11:02:18;101390.53;;;15.89;100.00
47897;BME280;39629;51.400;5.494;2023-05-11T11:07:21;101375.72;;;15.74;100.00
47897;BME280;39629;51.400;5.494;2023-05-11T11:12:23;101373.31;;;16.63;100.00
47897;BME280;39629;51.400;5.494;2023-05-11T11:17:28;101369.69;;;16.67;100.00
47897;BME280;39629;51.400;5.494;2023-05-11T11:22:43;101371.53;;;16.15;100.00
47897;BME280;39629;51.400;5.494;2023-05-11T11:27:56;101372.31;;;16.18;100.00
47897;BME280;39629;51.400;5.494;2023-05-11T11:33:30;101360.22;;;16.97;100.00
47897;BME280;39629;51.400;5.494;2023-05-11T11:38:57;101353.91;;;16.59;100.00
47897;BME280;39629;51.400;5.494;2023-05-11T11:43:59;101347.00;;;17.73;100.00
47897;BME280;39629;51.400;5.494;2023-05-11T11:49:07;101350.97;;;17.54;100.00
47897;BME280;39629;51.400;5.494;2023-05-11T11:54:11;101343.84;;;18.27;100.00
47897;BME280;39629;51.400;5.494;2023-05-11T11:59:13;101347.81;;;17.39;100.00
47897;BME280;39629;51.400;5.494;2023-05-11T12:09:45;101354.28;;;17.66;100.00
47897;BME280;39629;51.400;5.494;2023-05-11T12:14:47;101354.34;;;17.64;100.00
47897;BME280;39629;51.400;5.494;2023-05-11T12:19:51;101350.91;;;17.59;100.00
47897;BME280;39629;51.400;5.494;2023-05-11T12:24:57;101345.41;;;17.65;100.00
47897;BME280;39629;51.400;5.494;2023-05-11T12:29:58;101338.31;;;18.00;100.00
47897;BME280;39629;51.400;5.494;2023-05-11T12:35:02;101340.75;;;18.10;100.00
47897;BME280;39629;51.400;5.494;2023-05-11T12:40:09;101335.59;;;18.03;100.00
47897;BME280;39629;51.400;5.494;2023-05-11T12:45:12;101338.31;;;18.00;100.00
47897;BME280;39629;51.400;5.494;2023-05-11T12:50:15;101342.06;;;17.57;100.00
47897;BME280;39629;51.400;5.494;2023-05-11T12:55:26;101333.38;;;17.49;100.00
47897;BME280;39629;51.400;5.494;2023-05-11T13:00:28;101331.84;;;18.11;100.00
47897;BME280;39629;51.400;5.494;2023-05-11T13:05:30;101321.63;;;17.95;100.00
47897;BME280;39629;51.400;5.494;2023-05-11T13:10:32;101311.19;;;17.50;100.00
47897;BME280;39629;51.400;5.494;2023-05-11T13:15:49;101306.34;;;17.67;100.00
47897;BME280;39629;51.400;5.494;2023-05-11T13:21:03;101312.63;;;17.99;100.00
47897;BME280;39629;51.400;5.494;2023-05-11T13:26:07;101309.03;;;18.00;100.00
47897;BME280;39629;51.400;5.494;2023-05-11T13:31:08;101304.41;;;18.42;100.00
47897;BME280;39629;51.400;5.494;2023-05-11T13:36:10;101302.63;;;18.40;100.00
47897;BME280;39629;51.400;5.494;2023-05-11T13:41:13;101301.63;;;18.46;100.00
47897;BME280;39629;51.400;5.494;2023-05-11T13:46:14;101296.59;;;18.97;100.00
47897;BME280;39629;51.400;5.494;2023-05-11T13:51:16;101286.28;;;19.13;100.00
47897;BME280;39629;51.400;5.494;2023-05-11T13:56:19;101279.97;;;19.72;100.00
47897;BME280;39629;51.400;5.494;2023-05-11T14:01:21;101291.97;;;19.30;100.00
47897;BME280;39629;51.400;5.494;2023-05-11T14:06:23;101274.75;;;18.84;100.00
47897;BME280;39629;51.400;5.494;2023-05-11T14:11:26;101280.00;;;18.87;100.00
47897;BME280;39629;51.400;5.494;2023-05-11T14:16:28;101283.34;;;18.94;100.00
47897;BME280;39629;51.400;5.494;2023-05-11T14:21:30;101276.84;;;18.72;100.00
47897;BME280;39629;51.400;5.494;2023-05-11T14:26:33;101276.91;;;18.07;100.00
47897;BME280;39629;51.400;5.494;2023-05-11T14:31:35;101272.28;;;18.48;100.00
47897;BME280;39629;51.400;5.494;2023-05-11T14:36:36;101269.59;;;18.48;100.00
47897;BME280;39629;51.400;5.494;2023-05-11T14:41:39;101271.59;;;18.39;100.00
47897;BME280;39629;51.400;5.494;2023-05-11T14:46:41;101268.72;;;18.47;100.00
47897;BME280;39629;51.400;5.494;2023-05-11T14:51:42;101270.69;;;18.39;100.00
47897;BME280;39629;51.400;5.494;2023-05-11T14:56:46;101269.25;;;18.27;100.00
47897;BME280;39629;51.400;5.494;2023-05-11T15:01:52;101258.75;;;18.21;100.00
47897;BME280;39629;51.400;5.494;2023-05-11T15:06:54;101268.22;;;18.00;100.00
47897;BME280;39629;51.400;5.494;2023-05-11T15:11:57;101267.13;;;18.07;100.00
47897;BME280;39629;51.400;5.494;2023-05-11T15:17:00;101268.50;;;17.54;100.00
47897;BME280;39629;51.400;5.494;2023-05-11T15:22:02;101263.28;;;18.19;100.00
47897;BME280;39629;51.400;5.494;2023-05-11T15:27:05;101264.44;;;18.09;100.00
47897;BME280;39629;51.400;5.494;2023-05-11T15:32:06;101273.94;;;18.19;100.00
47897;BME280;39629;51.400;5.494;2023-05-11T15:37:08;101281.09;;;17.84;100.00
47897;BME280;39629;51.400;5.494;2023-05-11T15:42:12;101279.09;;;17.92;100.00
47897;BME280;39629;51.400;5.494;2023-05-11T15:47:13;101270.94;;;17.98;100.00
47897;BME280;39629;51.400;5.494;2023-05-11T15:52:15;101277.06;;;17.67;100.00
47897;BME280;39629;51.400;5.494;2023-05-11T15:57:18;101272.88;;;17.57;100.00
47897;BME280;39629;51.400;5.494;2023-05-11T16:02:19;101279.22;;;17.51;100.00
47897;BME280;39629;51.400;5.494;2023-05-11T16:07:21;101281.28;;;17.40;100.00
47897;BME280;39629;51.400;5.494;2023-05-11T16:12:24;101282.44;;;17.28;100.00
47897;BME280;39629;51.400;5.494;2023-05-11T16:17:26;101282.94;;;17.44;100.00
47897;BME280;39629;51.400;5.494;2023-05-11T16:22:27;101287.75;;;17.27;100.00
47897;BME280;39629;51.400;5.494;2023-05-11T16:27:31;101287.16;;;16.75;100.00
47897;BME280;39629;51.400;5.494;2023-05-11T16:32:33;101290.78;;;16.71;100.00
47897;BME280;39629;51.400;5.494;2023-05-11T16:37:34;101287.22;;;16.72;100.00
47897;BME280;39629;51.400;5.494;2023-05-11T16:42:37;101288.69;;;16.85;100.00
47897;BME280;39629;51.400;5.494;2023-05-11T16:47:39;101294.97;;;16.39;100.00
47897;BME280;39629;51.400;5.494;2023-05-11T16:52:40;101286.03;;;16.43;100.00
47897;BME280;39629;51.400;5.494;2023-05-11T16:57:43;101296.78;;;16.37;100.00
47897;BME280;39629;51.400;5.494;2023-05-11T17:02:45;101288.97;;;16.27;100.00
47897;BME280;39629;51.400;5.494;2023-05-11T17:07:46;101287.91;;;16.38;100.00
47897;BME280;39629;51.400;5.494;2023-05-11T17:12:49;101294.66;;;16.07;100.00
47897;BME280;39629;51.400;5.494;2023-05-11T17:17:51;101290.97;;;16.16;100.00
47897;BME280;39629;51.400;5.494;2023-05-11T17:22:52;101304.69;;;15.91;100.00
47897;BME280;39629;51.400;5.494;2023-05-11T17:27:56;101310.13;;;15.82;100.00
47897;BME280;39629;51.400;5.494;2023-05-11T17:32:57;101305.69;;;15.84;100.00
47897;BME280;39629;51.400;5.494;2023-05-11T17:38:00;101309.41;;;15.74;100.00
47897;BME280;39629;51.400;5.494;2023-05-11T17:43:03;101317.41;;;15.71;100.00
47897;BME280;39629;51.400;5.494;2023-05-11T17:48:05;101324.13;;;15.37;100.00
47897;BME280;39629;51.400;5.494;2023-05-11T17:53:06;101309.75;;;15.50;100.00
47897;BME280;39629;51.400;5.494;2023-05-11T17:58:09;101318.81;;;15.37;100.00
47897;BME280;39629;51.400;5.494;2023-05-11T18:03:11;101314.81;;;15.07;100.00
47897;BME280;39629;51.400;5.494;2023-05-11T18:08:12;101315.63;;;15.12;100.00
47897;BME280;39629;51.400;5.494;2023-05-11T18:13:15;101328.91;;;15.09;100.00
47897;BME280;39629;51.400;5.494;2023-05-11T18:18:17;101333.59;;;14.87;100.00
47897;BME280;39629;51.400;5.494;2023-05-11T18:23:19;101328.56;;;14.68;100.00
47897;BME280;39629;51.400;5.494;2023-05-11T18:28:21;101332.06;;;14.72;100.00
47897;BME280;39629;51.400;5.494;2023-05-11T18:33:23;101335.88;;;14.46;100.00
47897;BME280;39629;51.400;5.494;2023-05-11T18:38:25;101332.41;;;14.38;100.00
47897;BME280;39629;51.400;5.494;2023-05-11T18:43:28;101336.72;;;14.50;100.00
47897;BME280;39629;51.400;5.494;2023-05-11T18:48:29;101342.16;;;14.36;100.00
47897;BME280;39629;51.400;5.494;2023-05-11T18:53:31;101342.16;;;14.36;100.00
47897;BME280;39629;51.400;5.494;2023-05-11T18:58:34;101349.34;;;14.24;100.00
47897;BME280;39629;51.400;5.494;2023-05-11T19:03:36;101349.34;;;14.21;100.00
47897;BME280;39629;51.400;5.494;2023-05-11T19:08:38;101353.00;;;14.09;100.00
47897;BME280;39629;51.400;5.494;2023-05-11T19:13:40;101352.16;;;14.04;100.00
47897;BME280;39629;51.400;5.494;2023-05-11T19:18:43;101360.16;;;14.00;100.00
47897;BME280;39629;51.400;5.494;2023-05-11T19:23:44;101362.00;;;13.91;100.00
47897;BME280;39629;51.400;5.494;2023-05-11T19:28:48;101380.53;;;13.84;100.00
47897;BME280;39629;51.400;5.494;2023-05-11T19:33:50;101385.00;;;13.74;100.00
47897;BME280;39629;51.400;5.494;2023-05-11T19:38:51;101396.53;;;13.67;100.00
47897;BME280;39629;51.400;5.494;2023-05-11T19:43:54;101402.69;;;13.66;100.00
47897;BME280;39629;51.400;5.494;2023-05-11T19:48:56;101400.94;;;13.66;100.00
47897;BME280;39629;51.400;5.494;2023-05-11T19:53:58;101398.31;;;13.61;100.00
47897;BME280;39629;51.400;5.494;2023-05-11T19:59:01;101401.00;;;13.55;100.00
47897;BME280;39629;51.400;5.494;2023-05-11T20:04:03;101406.31;;;13.52;100.00
47897;BME280;39629;51.400;5.494;2023-05-11T20:09:05;101407.25;;;13.46;100.00
47897;BME280;39629;51.400;5.494;2023-05-11T20:14:08;101416.03;;;13.47;100.00
47897;BME280;39629;51.400;5.494;2023-05-11T20:19:10;101403.72;;;13.44;100.00
47897;BME280;39629;51.400;5.494;2023-05-11T20:24:11;101422.25;;;13.38;100.00
47897;BME280;39629;51.400;5.494;2023-05-11T20:29:14;101421.38;;;13.38;100.00
47897;BME280;39629;51.400;5.494;2023-05-11T20:34:16;101423.16;;;13.36;100.00
47897;BME280;39629;51.400;5.494;2023-05-11T20:39:17;101419.59;;;13.37;100.00
47897;BME280;39629;51.400;5.494;2023-05-11T20:44:21;101422.25;;;13.37;100.00
47897;BME280;39629;51.400;5.494;2023-05-11T20:49:23;101429.31;;;13.36;100.00
47897;BME280;39629;51.400;5.494;2023-05-11T20:54:24;101425.81;;;13.33;100.00
47897;BME280;39629;51.400;5.494;2023-05-11T20:59:27;101420.53;;;13.33;100.00
47897;BME280;39629;51.400;5.494;2023-05-11T21:04:30;101418.78;;;13.32;100.00
47897;BME280;39629;51.400;5.494;2023-05-11T21:09:33;101420.53;;;13.28;100.00
47897;BME280;39629;51.400;5.494;2023-05-11T21:14:35;101416.16;;;13.21;100.00
47897;BME280;39629;51.400;5.494;2023-05-11T21:19:37;101417.03;;;13.20;100.00
47897;BME280;39629;51.400;5.494;2023-05-11T21:24:39;101422.38;;;13.15;100.00
47897;BME280;39629;51.400;5.494;2023-05-11T21:29:43;101424.16;;;13.07;100.00
47897;BME280;39629;51.400;5.494;2023-05-11T21:34:44;101425.91;;;13.03;100.00
47897;BME280;39629;51.400;5.494;2023-05-11T21:39:46;101430.34;;;13.01;100.00
47897;BME280;39629;51.400;5.494;2023-05-11T21:44:49;101425.97;;;12.94;100.00
47897;BME280;39629;51.400;5.494;2023-05-11T21:49:51;101430.38;;;12.90;100.00
47897;BME280;39629;51.400;5.494;2023-05-11T21:54:52;101433.88;;;12.89;100.00
47897;BME280;39629;51.400;5.494;2023-05-11T21:59:55;101429.50;;;12.88;100.00
47897;BME280;39629;51.400;5.494;2023-05-11T22:04:57;101433.03;;;12.87;100.00
47897;BME280;39629;51.400;5.494;2023-05-11T22:09:58;101432.13;;;12.87;100.00
47897;BME280;39629;51.400;5.494;2023-05-11T22:15:01;101435.69;;;12.84;100.00
47897;BME280;39629;51.400;5.494;2023-05-11T22:20:06;101426.00;;;12.83;100.00
47897;BME280;39629;51.400;5.494;2023-05-11T22:25:09;101425.09;;;12.81;100.00
47897;BME280;39629;51.400;5.494;2023-05-11T22:30:12;101423.38;;;12.78;100.00
47897;BME280;39629;51.400;5.494;2023-05-11T22:35:14;101417.22;;;12.73;100.00
47897;BME280;39629;51.400;5.494;2023-05-11T22:40:16;101418.97;;;12.73;100.00
47897;BME280;39629;51.400;5.494;2023-05-11T22:45:19;101430.44;;;12.70;100.00
47897;BME280;39629;51.400;5.494;2023-05-11T22:50:21;101430.44;;;12.72;100.00
47897;BME280;39629;51.400;5.494;2023-05-11T22:55:23;101434.81;;;12.70;100.00
47897;BME280;39629;51.400;5.494;2023-05-11T23:00:26;101434.81;;;12.70;100.00
47897;BME280;39629;51.400;5.494;2023-05-11T23:05:28;101430.44;;;12.69;100.00
47897;BME280;39629;51.400;5.494;2023-05-11T23:10:30;101425.16;;;12.70;100.00
47897;BME280;39629;51.400;5.494;2023-05-11T23:15:33;101426.03;;;12.68;100.00
47897;BME280;39629;51.400;5.494;2023-05-11T23:20:34;101424.28;;;12.67;100.00
47897;BME280;39629;51.400;5.494;2023-05-11T23:25:36;101417.25;;;12.61;100.00
47897;BME280;39629;51.400;5.494;2023-05-11T23:30:38;101419.88;;;12.64;100.00
47897;BME280;39629;51.400;5.494;2023-05-11T23:35:40;101411.94;;;12.64;100.00
47897;BME280;39629;51.400;5.494;2023-05-11T23:40:42;101413.69;;;12.68;100.00
47897;BME280;39629;51.400;5.494;2023-05-11T23:45:45;101408.47;;;12.60;100.00
47897;BME280;39629;51.400;5.494;2023-05-11T23:50:46;101403.16;;;12.57;100.00
47897;BME280;39629;51.400;5.494;2023-05-11T23:55:48;101390.88;;;12.56;100.00
